Etusivu
METAR-TAF:

METAR-TAF

Lentoasemat :

Trondheim, Norja

Trondheimin lentoasema

Leveyspiiri: 63-28N, Pituuspiiri: 010-56E, korkeus merenpinnasta: 1 m

Tämänhetkinen sää

Tämä raportti tehtiin 24 minuuttia sitten, kello 23.50 UTC
Tuuli 4 kn idästä/kaakosta, vaihdellen pohjoisen ja kaakon välillä
Lämpötila 9°C
Kosteus 81%
Ilmanpaine 1012 hPa
Näkyvyys 10 km tai enemmän
ei pilviä alle 1500 m:ssä eikä cumulonimbus-pilviä

METAR: ENVA 282350Z 11004KT 350V140 CAVOK 09/06 Q1012 RMK WIND 670FT 07004KT

Aika: 02:14 (00:14 UTC)

Sääennuste

Ennuste voimassa 29. päivästä klo 00 UTC - 29. päivään klo 24 UTC
Tuuli 5 kn eri suunnista
Näkyvyys 10 km tai enemmän
ei pilviä alle 1500 m:ssä eikä cumulonimbus-pilviä
Todennäköisyys 40%
29. päivästä klo 08 UTC - 29. päivään klo 18 UTC
Tuuli 10 kn lännestä

TAF: ENVA 2900/2924 VRB05KT CAVOK PROB40 2908/2918 27010KT

Säähavainnot ja -ennusteet yli 4000 lentoasemalta (METAR- ja TAF-raportit).

Käytössä olevat sääasemat on merkitty karttaan keltaisilla ja punaisilla pisteillä.

Aseta hiiri pisteen päälle nähdäksesi sääaseman nimen.

Klikkaa sitten nähdäksesi säähavainnot ja -ennusteet.

Kartan vaihtaminen: klikkaa mustalla rastilla varustettuja vihreitä pisteitä, niin voit zoomata sisään; viivalla varustettua vihreää pistettä, niin voit zoomata ulos tai vihreitä nuolia, niin pääset viereisille kartoille.


METAR-TAF: